createdAt,value
2022-09-27T04:00:48.976Z,12.95
2022-09-27T04:03:51.754Z,13.07
2022-09-27T04:06:54.470Z,13.77
2022-09-27T04:09:57.690Z,13.60
2022-09-27T04:13:00.467Z,13.57
2022-09-27T04:16:03.485Z,14.63
2022-09-27T04:19:07.582Z,13.55
2022-09-27T04:22:15.942Z,13.57
2022-09-27T04:25:19.797Z,13.45
2022-09-27T04:28:22.654Z,12.95
2022-09-27T04:31:25.026Z,13.15
2022-09-27T04:34:47.547Z,14.15
2022-09-27T04:37:49.727Z,12.80
2022-09-27T04:40:52.159Z,13.15
2022-09-27T04:44:00.227Z,12.20
2022-09-27T04:47:02.568Z,13.65
2022-09-27T04:50:05.049Z,12.70
2022-09-27T04:53:07.396Z,16.50
2022-09-27T04:56:10.063Z,20.62
2022-09-27T04:59:12.882Z,23.60
2022-09-27T05:02:15.428Z,22.73
2022-09-27T05:05:18.553Z,27.62
2022-09-27T05:08:21.083Z,30.42
2022-09-27T05:11:28.478Z,30.90
2022-09-27T05:14:39.944Z,29.70
2022-09-27T05:17:42.467Z,29.23
2022-09-27T05:20:53.341Z,30.83
2022-09-27T05:23:56.273Z,32.03
2022-09-27T05:26:58.606Z,29.40
2022-09-27T05:30:01.924Z,29.08
2022-09-27T05:33:06.547Z,28.60
2022-09-27T05:36:12.083Z,25.20
2022-09-27T05:39:16.642Z,25.00
2022-09-27T05:42:19.581Z,24.98
2022-09-27T05:45:23.401Z,25.05
2022-09-27T05:48:26.292Z,26.73
2022-09-27T05:51:32.238Z,25.92
2022-09-27T05:54:35.734Z,26.92
2022-09-27T05:57:39.433Z,29.05
2022-09-27T06:00:43.434Z,27.45
2022-09-27T06:03:47.996Z,27.48
2022-09-27T06:06:50.765Z,28.05
2022-09-27T06:09:53.235Z,28.52
2022-09-27T06:13:03.665Z,29.08
2022-09-27T06:16:09.842Z,30.58
2022-09-27T06:19:13.010Z,31.53
2022-09-27T06:22:15.690Z,33.38
2022-09-27T06:25:18.534Z,31.27
2022-09-27T06:28:25.572Z,27.45
2022-09-27T06:31:30.595Z,28.08
2022-09-27T06:34:33.946Z,27.05
2022-09-27T06:37:35.982Z,26.17
2022-09-27T06:40:38.352Z,26.95
2022-09-27T06:43:40.672Z,25.27
2022-09-27T06:46:43.494Z,25.33
2022-09-27T06:49:47.504Z,26.10
2022-09-27T06:52:50.716Z,27.52
2022-09-27T06:55:55.653Z,27.05
2022-09-27T06:59:16.700Z,28.00
2022-09-27T07:02:27.876Z,27.45
2022-09-27T07:05:31.113Z,31.05
2022-09-27T07:08:35.727Z,31.87
2022-09-27T07:11:38.162Z,27.30
2022-09-27T07:14:40.231Z,26.77
2022-09-27T07:17:46.132Z,37.38
2022-09-27T07:20:48.196Z,23.23
2022-09-27T07:23:51.040Z,22.15
2022-09-27T07:26:53.279Z,22.48
2022-09-27T07:29:55.894Z,23.45
2022-09-27T07:33:00.908Z,22.48
2022-09-27T07:36:08.292Z,21.33
2022-09-27T07:39:11.071Z,21.67
2022-09-27T07:42:15.703Z,24.48
2022-09-27T07:45:18.469Z,20.23
2022-09-27T07:48:21.999Z,20.12
2022-09-27T07:51:24.186Z,20.60
2022-09-27T07:54:26.617Z,20.27
2022-09-27T07:57:30.089Z,20.08
2022-09-27T08:00:32.909Z,20.33
2022-09-27T08:03:36.100Z,36.47
2022-09-27T08:06:38.558Z,21.05
2022-09-27T08:09:41.124Z,27.48
2022-09-27T08:12:43.703Z,21.20
2022-09-27T08:15:46.262Z,21.90
2022-09-27T08:18:48.501Z,21.90
2022-09-27T08:21:58.720Z,23.62
2022-09-27T08:25:04.101Z,21.23
2022-09-27T08:28:06.561Z,28.95
2022-09-27T08:31:08.758Z,25.73
2022-09-27T08:34:12.322Z,21.02
2022-09-27T08:37:14.757Z,20.30
2022-09-27T08:40:17.718Z,20.62
2022-09-27T08:43:32.933Z,20.50
2022-09-27T08:47:00.635Z,20.85
2022-09-27T08:50:09.001Z,86.97
2022-09-27T08:53:14.026Z,26.25
2022-09-27T08:56:21.136Z,67.65
2022-09-27T08:59:28.586Z,31.73
2022-09-27T09:02:31.146Z,27.87
2022-09-27T09:05:35.599Z,21.87
2022-09-27T09:09:19.885Z,21.65
2022-09-27T09:12:48.610Z,22.65
2022-09-27T09:16:15.930Z,23.90
2022-09-27T09:19:26.673Z,24.95
2022-09-27T09:22:43.153Z,25.67
2022-09-27T09:25:51.841Z,23.70
2022-09-27T09:29:07.768Z,22.23
2022-09-27T09:32:28.693Z,20.73
2022-09-27T09:35:41.489Z,20.30
2022-09-27T09:38:56.011Z,27.05
2022-09-27T09:42:13.449Z,32.75
2022-09-27T09:45:22.767Z,23.90
2022-09-27T09:48:43.358Z,27.00
2022-09-27T09:51:52.905Z,54.17
2022-09-27T09:55:03.553Z,36.90
2022-09-27T09:58:33.409Z,31.60
2022-09-27T10:01:44.455Z,27.13
2022-09-27T10:04:46.814Z,30.42
2022-09-27T10:07:51.338Z,22.83
2022-09-27T10:10:53.863Z,21.70
2022-09-27T10:13:58.342Z,23.50
2022-09-27T10:17:04.079Z,21.67
2022-09-27T10:20:07.427Z,21.30
2022-09-27T10:23:15.216Z,22.20
2022-09-27T10:26:19.866Z,22.73
2022-09-27T10:29:37.364Z,21.85
2022-09-27T10:32:42.183Z,21.50
2022-09-27T10:35:49.572Z,20.33
2022-09-27T10:38:54.720Z,20.40
2022-09-27T10:41:57.833Z,21.73
2022-09-27T10:45:26.838Z,19.85
2022-09-27T10:48:29.316Z,20.48
2022-09-27T10:51:31.905Z,20.65
2022-09-27T10:54:37.488Z,19.08
2022-09-27T10:57:44.308Z,20.45
2022-09-27T11:01:03.607Z,19.65
2022-09-27T11:04:20.495Z,19.58
2022-09-27T11:07:24.119Z,18.65
2022-09-27T11:10:36.296Z,19.05
2022-09-27T11:13:40.933Z,19.55
2022-09-27T11:16:58.549Z,17.95
2022-09-27T11:20:25.836Z,17.25
2022-09-27T11:23:48.941Z,19.15
2022-09-27T11:27:26.927Z,19.30
2022-09-27T11:30:42.386Z,17.92
2022-09-27T11:34:12.018Z,18.83
2022-09-27T11:37:20.594Z,17.45
2022-09-27T11:40:55.261Z,17.75
2022-09-27T11:44:09.800Z,17.65
2022-09-27T11:47:30.277Z,17.35
2022-09-27T11:50:59.904Z,17.45
2022-09-27T11:54:09.341Z,17.40
2022-09-27T11:57:26.997Z,17.27
2022-09-27T12:01:11.290Z,17.27
2022-09-27T12:04:48.142Z,21.20
2022-09-27T12:08:00.516Z,20.33
2022-09-27T12:11:15.030Z,19.08
2022-09-27T12:14:26.930Z,15.70
2022-09-27T12:17:35.929Z,14.20
2022-09-27T12:20:41.033Z,15.07
2022-09-27T12:23:49.448Z,14.48
2022-09-27T12:26:57.449Z,14.35
2022-09-27T12:30:00.954Z,14.02
2022-09-27T12:34:04.780Z,15.93
2022-09-27T12:37:21.915Z,14.80
2022-09-27T12:40:38.786Z,17.02
2022-09-27T12:43:49.009Z,17.33
2022-09-27T12:47:17.586Z,25.37
2022-09-27T12:50:46.128Z,17.05
2022-09-27T12:53:56.179Z,15.68
2022-09-27T12:57:18.642Z,14.98
2022-09-27T13:00:27.696Z,13.07
2022-09-27T13:03:32.776Z,11.77
2022-09-27T13:06:50.750Z,11.80
2022-09-27T13:10:24.781Z,13.13
2022-09-27T13:13:27.724Z,11.63
2022-09-27T13:16:30.187Z,11.98
2022-09-27T13:19:36.810Z,10.98
2022-09-27T13:22:40.254Z,11.18
2022-09-27T13:25:56.233Z,9.38
2022-09-27T13:29:03.132Z,10.13
2022-09-27T13:32:16.302Z,10.05
2022-09-27T13:35:25.542Z,11.63
2022-09-27T13:38:28.704Z,11.05
2022-09-27T13:41:46.673Z,12.30
2022-09-27T13:45:17.477Z,11.25
2022-09-27T13:48:25.418Z,8.43
2022-09-27T13:51:34.183Z,8.90
2022-09-27T13:54:41.649Z,7.70
2022-09-27T13:58:00.221Z,7.75
2022-09-27T14:01:16.098Z,7.43
2022-09-27T14:07:42.095Z,8.55
2022-09-27T14:10:45.935Z,8.27
2022-09-27T14:13:49.792Z,3.72
2022-09-27T14:16:54.253Z,3.55
2022-09-27T14:19:57.338Z,3.72
2022-09-27T14:23:01.178Z,1.80
2022-09-27T14:26:03.932Z,2.37
2022-09-27T14:29:19.419Z,2.08
2022-09-27T14:32:31.538Z,1.75
2022-09-27T14:35:53.358Z,1.37
2022-09-27T14:38:58.729Z,1.42
2022-09-27T14:42:04.607Z,1.35
2022-09-27T14:45:20.478Z,1.50
2022-09-27T14:48:28.089Z,1.50
2022-09-27T14:51:31.891Z,1.27
2022-09-27T14:54:34.206Z,1.12
2022-09-27T14:57:37.085Z,1.20
2022-09-27T15:00:41.347Z,1.40
2022-09-27T15:03:45.511Z,1.20
2022-09-27T15:06:49.580Z,1.20
2022-09-27T15:09:51.991Z,0.90
2022-09-27T15:12:59.760Z,1.23
2022-09-27T15:16:17.225Z,0.98
2022-09-27T15:19:29.498Z,0.93
2022-09-27T15:22:49.613Z,0.80
2022-09-27T15:26:16.345Z,0.68
2022-09-27T15:29:23.882Z,0.73
2022-09-27T15:32:28.929Z,0.57
2022-09-27T15:35:34.793Z,0.43
